Latest Weather Observations for Kununurra Airport

IDW60801

Issued at 7:05 pm WST Monday 1 September 2014 (issued every 30 minutes, with the page automatically refreshed every 10 minutes)

About weather observations | Map of weather stations | Latest weather observations for WA | Other Formats
Station Details ID: 002056 Name: KUNUNURRA AERO Lat: -15.78 Lon: 128.71 Height: 44.0 m
Data from the previous 72 hours. | See also: Recent months at Kununurra Airport
Date/Time
WST
Temp
°C
App
Temp
°C
Dew
Point
Rel
Hum
%
Delta-T
°C
Wind Press
QNH
hPa
Press
MSL
hPa
Rain
since 9 am
mm
Dir
 
Spd
km/h
Gust
km/h
Spd
kts
Gust
kts
01/07:00pm 21.8 20.2 2.5 28 9.1 SSE 0 6 0 3 1013.7 - 0.0
01/06:30pm 22.9 20.0 2.8 26 9.6 SE 7 11 4 6 1013.4 - 0.0
01/06:00pm 23.9 21.0 4.7 28 9.6 S 9 13 5 7 1012.8 1012.5 0.0
01/05:30pm 28.0 24.7 0.4 16 13.1 E 7 7 4 4 1012.5 - 0.0
01/05:00pm 31.5 27.4 -3.2 10 15.9 E 9 15 5 8 1012.2 - 0.0
01/04:30pm 33.4 28.3 -9.9 5 18.0 E 11 17 6 9 1011.9 - 0.0
01/04:00pm 34.0 27.9 -13.2 4 18.7 E 15 20 8 11 1011.7 - 0.0
01/03:30pm 34.3 28.3 -11.5 5 18.7 SSE 15 19 8 10 1011.7 - 0.0
01/03:00pm 34.1 29.7 -6.1 7 17.9 SSE 9 17 5 9 1011.7 1011.4 0.0
01/02:30pm 33.9 27.8 -12.8 4 18.6 ESE 15 24 8 13 1012.0 - 0.0
01/02:00pm 34.5 28.7 -8.8 6 18.5 SE 15 24 8 13 1012.2 - 0.0
01/01:30pm 33.7 28.6 -9.3 6 18.1 SE 11 17 6 9 1012.5 - 0.0
01/01:00pm 34.0 28.8 -10.4 5 18.4 SE 11 17 6 9 1013.1 - 0.0
01/12:30pm 34.3 28.5 -9.0 6 18.4 SSE 15 22 8 12 1013.5 - 0.0
01/12:00pm 33.0 28.0 -7.9 7 17.5 SE 11 19 6 10 1014.0 1013.8 0.0
01/11:30am 33.5 28.1 -8.8 6 17.9 E 13 20 7 11 1014.7 - 0.0
01/11:00am 33.1 26.2 -10.7 5 17.9 ESE 20 30 11 16 1015.3 - 0.0
01/10:30am 32.9 26.3 -9.2 6 17.6 E 19 26 10 14 1015.7 - 0.0
01/10:00am 31.7 26.3 -4.4 9 16.2 SE 15 20 8 11 1016.1 - 0.0
01/09:30am 30.9 25.0 -5.4 9 15.9 E 17 22 9 12 1016.6 - 0.0
01/09:00am 28.4 24.2 -0.8 15 13.6 SSE 11 17 6 9 1016.9 1016.7 0.0
01/08:30am 26.7 23.2 1.0 18 12.2 S 9 13 5 7 1017.0 - 0.0
01/08:00am 24.7 22.3 4.1 26 10.2 SSE 6 7 3 4 1016.7 - 0.0
01/07:30am 21.8 20.5 4.1 31 8.6 CALM 0 6 0 3 1016.6 - 0.0
01/07:00am 18.3 16.7 6.4 45 5.9 SSE 4 6 2 3 1016.3 - 0.0
01/06:30am 14.9 13.9 9.0 68 3.0 SSE 4 7 2 4 1015.9 - 0.0
01/06:00am 11.7 9.5 5.2 64 3.0 S 6 7 3 4 1015.6 1015.4 0.0
01/05:30am 10.8 9.8 5.6 70 2.4 CALM 0 0 0 0 1015.1 - 0.0
01/05:00am 10.6 9.6 5.6 71 2.3 CALM 0 0 0 0 1014.8 - 0.0
01/04:30am 10.1 9.1 5.8 74 2.0 CALM 0 0 0 0 1014.4 - 0.0
01/04:00am 11.6 11.1 7.9 78 1.8 CALM 0 0 0 0 1014.2 - 0.0
01/03:30am 12.3 10.2 5.7 64 3.1 SSW 6 7 3 4 1013.8 - 0.0
01/03:00am 11.4 9.3 6.8 73 2.2 SSE 7 9 4 5 1013.5 1013.3 0.0
01/02:30am 12.1 10.0 5.7 65 3.0 ESE 6 6 3 3 1013.5 - 0.0
01/02:00am 12.3 10.3 6.4 67 2.8 N 6 6 3 3 1013.3 - 0.0
01/01:30am 11.0 8.8 5.1 67 2.7 N 6 6 3 3 1013.3 - 0.0
01/01:00am 11.5 10.5 5.7 67 2.7 CALM 0 0 0 0 1013.3 - 0.0
01/12:30am 12.0 9.6 4.5 60 3.4 ESE 6 6 3 3 1013.3 - 0.0
01/12:00am 12.5 11.5 5.4 62 3.3 ESE 0 0 0 0 1013.4 1013.2 0.0
 
Date/Time
WST
Temp
°C
App
Temp
°C
Dew
Point
Rel
Hum
%
Delta-T
°C
Wind Press
QNH
hPa
Press
MSL
hPa
Rain
since 9 am
mm
Dir
 
Spd
km/h
Gust
km/h
Spd
kts
Gust
kts
31/11:30pm 13.6 12.4 4.7 55 4.1 CALM 0 0 0 0 1013.4 - 0.0
31/11:00pm 14.2 12.8 3.6 49 4.8 CALM 0 0 0 0 1013.5 - 0.0
31/10:30pm 14.7 13.3 3.5 47 5.1 CALM 0 0 0 0 1013.6 - 0.0
31/10:00pm 15.2 14.3 6.1 54 4.4 CALM 0 0 0 0 1013.6 - 0.0
31/09:30pm 16.0 15.2 6.4 53 4.7 CALM 0 0 0 0 1013.6 - 0.0
31/09:00pm 16.5 14.8 4.1 43 5.8 SSE 2 7 1 4 1013.7 1013.5 0.0
31/08:30pm 17.5 16.4 5.0 43 6.0 CALM 0 0 0 0 1013.7 - 0.0
31/08:00pm 18.9 18.1 8.3 50 5.5 SSE 2 7 1 4 1013.6 - 0.0
31/07:30pm 19.0 16.3 2.9 34 7.5 E 6 9 3 5 1013.4 - 0.0
31/07:00pm 19.9 19.1 6.3 41 6.8 CALM 0 0 0 0 1013.1 - 0.0
31/06:30pm 21.2 19.5 7.5 41 7.1 SSE 6 9 3 5 1012.7 - 0.0
31/06:00pm 23.2 22.0 4.4 29 9.3 CALM 0 2 0 1 1012.3 1012.1 0.0
31/05:30pm 26.3 23.6 2.5 21 11.6 SE 6 7 3 4 1012.1 - 0.0
31/05:00pm 30.4 25.9 -7.0 8 15.9 ENE 9 13 5 7 1011.8 - 0.0
31/04:30pm 31.9 27.9 -5.3 9 16.5 SSE 7 9 4 5 1011.6 - 0.0
31/04:00pm 32.4 28.0 -6.0 8 16.9 NE 9 17 5 9 1011.5 - 0.0
31/03:30pm 32.8 28.0 -11.1 5 17.8 SSE 9 17 5 9 1011.5 - 0.0
31/03:00pm 33.0 28.0 -12.9 4 18.1 E 9 17 5 9 1011.6 1011.4 0.0
31/02:30pm 32.3 25.8 -12.9 5 17.7 ENE 17 22 9 12 1011.8 - 0.0
31/02:00pm 32.5 26.1 -11.8 5 17.7 E 17 24 9 13 1012.1 - 0.0
31/01:30pm 32.5 27.7 -10.1 6 17.5 SSE 9 15 5 8 1012.6 - 0.0
31/01:00pm 33.0 27.0 -11.1 5 17.9 SE 15 17 8 9 1013.0 - 0.0
31/12:30pm 33.0 26.1 -13.0 4 18.1 SSE 19 24 10 13 1013.2 - 0.0
31/12:00pm 32.0 25.0 -11.7 5 17.4 SSE 20 28 11 15 1013.6 1013.4 0.0
31/11:30am 31.6 25.4 -9.4 6 16.9 E 17 22 9 12 1014.4 - 0.0
31/11:00am 31.0 24.2 -9.8 6 16.6 ESE 20 28 11 15 1014.9 - 0.0
31/10:30am 31.2 23.5 -11.4 6 16.9 E 24 35 13 19 1015.5 - 0.0
31/10:00am 30.1 23.6 -8.3 8 15.9 SE 19 26 10 14 1015.9 - 0.0
31/09:30am 29.9 23.2 -8.4 8 15.8 ESE 20 32 11 17 1016.4 - 0.0
31/09:00am 28.6 21.8 -9.3 8 15.2 E 20 28 11 15 1016.6 1016.4 0.0
31/08:30am 27.9 22.7 -5.9 10 14.3 E 13 17 7 9 1016.6 - 0.0
31/08:00am 24.8 21.5 0.0 19 11.4 S 7 11 4 6 1016.4 - 0.0
31/07:30am 23.3 20.6 -2.2 18 11.1 E 2 7 1 4 1016.3 - 0.0
31/07:00am 19.9 18.5 3.4 33 7.8 CALM 0 0 0 0 1016.1 - 0.0
31/06:30am 15.0 14.1 6.1 55 4.3 CALM 0 0 0 0 1016.0 - 0.0
31/06:00am 11.6 10.1 2.9 55 3.8 CALM 0 0 0 0 1015.6 1015.4 0.0
31/05:30am 10.0 7.3 2.5 59 3.2 N 6 7 3 4 1015.3 - 0.0
31/05:00am 10.3 7.9 5.3 71 2.3 SSE 7 9 4 5 1015.0 - 0.0
31/04:30am 11.2 10.2 5.8 69 2.5 CALM 0 0 0 0 1014.6 - 0.0
31/04:00am 11.5 10.5 5.4 66 2.8 CALM 0 0 0 0 1014.4 - 0.0
31/03:30am 11.9 11.1 6.6 70 2.5 CALM 0 0 0 0 1014.3 - 0.0
31/03:00am 12.7 11.1 6.2 64 3.1 SSE 4 6 2 3 1014.2 1014.0 0.0
31/02:30am 13.3 11.4 6.9 65 3.1 S 6 7 3 4 1014.0 - 0.0
31/02:00am 13.3 12.5 11.2 87 1.1 SSW 6 9 3 5 1014.0 - 0.0
31/01:30am 12.7 11.1 8.9 78 1.9 S 7 9 4 5 1014.0 - 0.0
31/01:00am 13.5 11.9 8.7 73 2.4 S 7 9 4 5 1014.0 - 0.0
31/12:30am 13.9 12.6 9.2 73 2.4 SSE 6 7 3 4 1014.1 - 0.0
31/12:00am 14.1 13.3 9.6 74 2.3 SE 4 6 2 3 1014.3 1014.1 0.0
 
Date/Time
WST
Temp
°C
App
Temp
°C
Dew
Point
Rel
Hum
%
Delta-T
°C
Wind Press
QNH
hPa
Press
MSL
hPa
Rain
since 9 am
mm
Dir
 
Spd
km/h
Gust
km/h
Spd
kts
Gust
kts
30/11:30pm 14.6 12.8 8.0 64 3.3 SE 7 7 4 4 1014.4 - 0.0
30/11:00pm 14.8 12.9 6.6 58 4.0 ESE 6 9 3 5 1014.5 - 0.0
30/10:30pm 15.4 13.2 6.1 54 4.5 ESE 7 9 4 5 1014.7 - 0.0
30/10:00pm 15.0 12.5 5.0 51 4.7 E 7 11 4 6 1014.7 - 0.0
30/09:30pm 16.4 15.3 5.1 47 5.4 CALM 0 0 0 0 1014.6 - 0.0
30/09:00pm 15.9 14.4 3.2 42 5.8 CALM 0 0 0 0 1014.5 1014.3 0.0
30/08:30pm 16.4 14.7 2.1 38 6.4 CALM 0 0 0 0 1014.5 - 0.0
30/08:00pm 17.2 15.6 2.4 37 6.7 CALM 0 0 0 0 1014.5 - 0.0
30/07:30pm 18.9 17.5 3.6 36 7.2 CALM 0 0 0 0 1014.4 - 0.0
30/07:00pm 19.1 17.4 1.7 31 7.9 CALM 0 0 0 0 1014.2 - 0.0
30/06:30pm 22.4 19.7 2.9 27 9.3 SE 6 7 3 4 1013.8 - 0.0
30/06:00pm 27.1 22.9 -3.7 13 13.5 SSE 9 13 5 7 1013.4 1013.2 0.0
30/05:30pm 27.3 23.0 -4.8 12 13.8 SE 9 13 5 7 1013.1 - 0.0
30/05:00pm 28.9 23.5 -7.9 8 15.2 E 13 17 7 9 1012.8 - 0.0
30/04:30pm 31.2 25.2 -11.2 6 16.9 SE 15 24 8 13 1012.6 - 0.0
30/04:00pm 31.9 25.0 -14.2 4 17.6 E 19 20 10 11 1012.4 - 0.0
30/03:30pm 31.9 25.8 -8.0 7 16.9 ESE 17 28 9 15 1012.4 - 0.0
30/03:00pm 32.4 26.4 -11.4 5 17.6 ESE 15 28 8 15 1012.4 1012.2 0.0
30/02:30pm 32.2 25.7 -12.5 5 17.6 E 17 26 9 14 1012.5 - 0.0
30/02:00pm 32.2 26.1 -12.5 5 17.6 SE 15 24 8 13 1012.7 - 0.0
30/01:30pm 31.9 25.1 -11.3 5 17.3 E 19 24 10 13 1013.1 - 0.0
30/01:00pm 31.5 25.2 -9.9 6 16.9 E 17 30 9 16 1013.7 - 0.0
30/12:30pm 32.5 24.7 -12.0 5 17.7 ESE 24 35 13 19 1014.3 - 0.0
30/12:00pm 31.5 25.1 -11.7 5 17.1 E 17 30 9 16 1014.9 1014.7 0.0
30/11:30am 31.3 23.3 -10.0 6 16.8 SE 26 32 14 17 1015.3 - 0.0
30/11:00am 31.3 24.1 -10.1 6 16.8 ESE 22 32 12 17 1015.7 - 0.0
30/10:30am 30.3 21.9 -9.8 7 16.2 ESE 28 35 15 19 1016.4 - 0.0
30/10:00am 30.3 22.4 -8.3 7 16.0 ESE 26 39 14 21 1017.0 - 0.0
30/09:30am 29.3 21.7 -10.3 7 15.7 E 24 30 13 16 1017.5 - 0.0
30/09:00am 28.2 20.2 -9.5 8 15.0 ESE 26 33 14 18 1017.8 1017.7 0.0
30/08:30am 28.0 20.5 -8.1 9 14.7 ESE 24 35 13 19 1017.9 - 0.0
30/08:00am 25.1 22.7 4.2 26 10.4 SSE 6 9 3 5 1017.8 - 0.0
30/07:30am 22.4 21.4 5.4 33 8.5 CALM 0 6 0 3 1017.6 - 0.0
30/07:00am 19.0 18.2 6.6 44 6.2 CALM 0 0 0 0 1017.4 - 0.0
30/06:30am 13.8 13.0 6.5 61 3.5 CALM 0 0 0 0 1017.1 - 0.0
30/06:00am 10.6 9.8 6.3 75 2.0 CALM 0 0 0 0 1016.6 1016.4 0.0
30/05:30am 10.4 8.4 6.1 75 2.0 E 6 7 3 4 1016.3 - 0.0
30/05:00am 11.1 9.4 5.9 70 2.4 SSE 4 6 2 3 1016.0 - 0.0
30/04:30am 11.7 10.6 5.2 64 3.0 CALM 0 0 0 0 1015.9 - 0.0
30/04:00am 12.4 10.7 7.7 73 2.3 S 6 9 3 5 1015.6 - 0.0
30/03:30am 12.3 10.2 6.6 68 2.7 S 7 9 4 5 1015.3 - 0.0
30/03:00am 11.7 10.5 4.4 61 3.3 CALM 0 0 0 0 1015.4 1015.2 0.0
30/02:30am 11.7 9.8 6.9 72 2.3 SSE 6 7 3 4 1015.4 - 0.0
30/02:00am 12.2 10.2 4.2 58 3.6 S 4 6 2 3 1015.5 - 0.0
30/01:30am 13.9 12.6 7.6 66 3.1 S 4 6 2 3 1015.6 - 0.0
30/01:00am 13.1 10.9 5.4 59 3.6 S 6 7 3 4 1015.7 - 0.0
30/12:30am 13.0 11.7 9.3 78 1.9 SSE 6 7 3 4 1015.7 - 0.0
30/12:00am 12.7 10.7 7.1 69 2.7 SSE 7 7 4 4 1015.7 1015.5 0.0
 
Date/Time
WST
Temp
°C
App
Temp
°C
Dew
Point
Rel
Hum
%
Delta-T
°C
Wind Press
QNH
hPa
Press
MSL
hPa
Rain
since 9 am
mm
Dir
 
Spd
km/h
Gust
km/h
Spd
kts
Gust
kts
29/11:30pm 12.0 9.2 2.9 53 4.0 ESE 7 9 4 5 1015.7 - 0.0
29/11:00pm 14.1 12.2 2.6 46 5.1 SE 2 6 1 3 1015.6 - 0.0
29/10:30pm 13.1 11.5 2.6 49 4.6 CALM 0 0 0 0 1015.6 - 0.0
29/10:00pm 15.0 12.8 3.3 45 5.3 E 4 9 2 5 1015.7 - 0.0
29/09:30pm 14.4 12.2 3.3 47 5.0 E 4 15 2 8 1015.6 - 0.0
29/09:00pm 16.4 13.5 4.5 45 5.6 SW 9 9 5 5 1015.7 1015.5 0.0
29/08:30pm 16.1 13.5 3.2 42 5.9 SSE 6 13 3 7 1015.8 - 0.0
29/08:00pm 16.8 15.2 2.7 39 6.4 CALM 0 0 0 0 1015.5 - 0.0
29/07:30pm 17.9 15.7 5.3 43 6.1 SE 6 7 3 4 1015.2 - 0.0

Other Formats:

Comma delimited format used in spreadsheet applications
http://www.bom.gov.au/fwo/IDW60801/IDW60801.94216.axf

JavaScript Object Notation format (JSON) in row-major order
http://www.bom.gov.au/fwo/IDW60801/IDW60801.94216.json